Time;durP1;ratioP1;P1;durP2;ratioP2;P2;SDS_P1;SDS_P2;PMS_P1;PMS_P2;Temp;Humidity;BMP_temperature;BMP_pressure;BME280_temperature;BME280_humidity;BME280_pressure;Samples;Min_cycle;Max_cycle;Signal;HPM_P1;HPM_P2
2022/07/22 00:01:19;;;;;;;1.00;1.00;;;26.80;44.10;;;;;;5085777;28;20055;-61
2022/07/22 00:03:46;;;;;;;0.80;0.80;;;26.90;44.20;;;;;;5085527;28;20040;-63
2022/07/22 00:06:14;;;;;;;1.20;1.15;;;26.80;44.10;;;;;;5086109;28;20056;-63
2022/07/22 00:08:41;;;;;;;0.82;0.82;;;26.80;44.20;;;;;;5086506;28;20044;-62
2022/07/22 00:11:08;;;;;;;0.80;0.80;;;26.80;44.10;;;;;;5086265;28;20071;-62
2022/07/22 00:13:36;;;;;;;0.93;0.80;;;26.80;44.10;;;;;;5082076;28;20052;-63
2022/07/22 00:16:03;;;;;;;0.80;0.80;;;26.80;44.10;;;;;;5086379;28;20275;-62
2022/07/22 00:18:31;;;;;;;0.98;0.95;;;26.80;44.10;;;;;;5085475;28;20417;-62
2022/07/22 00:20:58;;;;;;;1.00;1.00;;;26.80;44.10;;;;;;5085877;28;20316;-63
2022/07/22 00:23:25;;;;;;;1.25;1.15;;;26.80;44.10;;;;;;5085342;28;20123;-62
2022/07/22 00:25:53;;;;;;;0.77;0.77;;;26.80;44.20;;;;;;5086104;28;20044;-62
2022/07/22 00:28:20;;;;;;;0.73;0.73;;;26.80;44.20;;;;;;5085460;28;20048;-63
2022/07/22 00:30:48;;;;;;;2.05;1.02;;;26.80;44.20;;;;;;5084846;28;20039;-62
2022/07/22 00:33:19;;;;;;;1.10;1.10;;;26.80;44.30;;;;;;5084320;28;20040;-64
2022/07/22 00:35:46;;;;;;;1.55;1.05;;;26.70;44.20;;;;;;5085486;28;20048;-62
2022/07/22 00:38:14;;;;;;;0.95;0.95;;;26.70;44.30;;;;;;5085825;28;20463;-62
2022/07/22 00:40:41;;;;;;;1.00;1.00;;;26.70;44.20;;;;;;5084665;28;20048;-62
2022/07/22 00:43:08;;;;;;;0.93;0.93;;;26.70;44.30;;;;;;5080314;28;20047;-62
2022/07/22 00:45:36;;;;;;;0.93;0.90;;;26.70;44.30;;;;;;5085177;28;20540;-63
2022/07/22 00:48:04;;;;;;;1.38;1.10;;;26.70;44.30;;;;;;5085505;28;20056;-63
2022/07/22 00:50:32;;;;;;;0.88;0.88;;;26.70;44.30;;;;;;5085208;28;20447;-60
2022/07/22 00:53:00;;;;;;;0.90;0.90;;;26.70;44.30;;;;;;5085084;28;20450;-60
2022/07/22 00:55:28;;;;;;;1.10;1.10;;;26.70;44.40;;;;;;5085392;28;20045;-60
2022/07/22 00:57:55;;;;;;;0.90;0.90;;;26.70;44.40;;;;;;5085106;28;20074;-60
2022/07/22 01:00:23;;;;;;;1.00;1.00;;;26.70;44.40;;;;;;5085792;28;20080;-59
2022/07/22 01:02:51;;;;;;;0.90;0.90;;;26.70;44.40;;;;;;5083693;28;20040;-60
2022/07/22 01:05:19;;;;;;;1.42;0.95;;;26.70;44.40;;;;;;5085542;28;20052;-61
2022/07/22 01:07:46;;;;;;;1.13;0.88;;;26.70;44.50;;;;;;5084987;28;20176;-61
2022/07/22 01:10:14;;;;;;;0.93;0.93;;;26.70;44.40;;;;;;5085194;28;20128;-61
2022/07/22 01:12:41;;;;;;;0.88;0.88;;;26.70;44.50;;;;;;5085004;28;20067;-62
2022/07/22 01:15:08;;;;;;;0.90;0.90;;;26.70;45.00;;;;;;5080666;28;20137;-61
2022/07/22 01:17:36;;;;;;;0.80;0.80;;;26.70;44.50;;;;;;5085679;28;20047;-62
2022/07/22 01:20:07;;;;;;;0.93;0.93;;;26.70;44.50;;;;;;5084292;28;20622;-61
2022/07/22 01:22:35;;;;;;;0.90;0.90;;;26.70;44.50;;;;;;5085228;28;20098;-62
2022/07/22 01:25:02;;;;;;;1.02;0.98;;;26.70;44.50;;;;;;5085001;28;20101;-61
2022/07/22 01:27:29;;;;;;;2.88;1.17;;;26.70;44.50;;;;;;5085752;28;20051;-62
2022/07/22 01:29:57;;;;;;;0.80;0.80;;;26.70;44.50;;;;;;5089615;28;20097;-61
2022/07/22 01:32:24;;;;;;;2.97;1.40;;;26.60;44.50;;;;;;5088565;28;20413;-61
2022/07/22 01:34:51;;;;;;;0.82;0.82;;;26.60;44.40;;;;;;5089178;28;20044;-62
2022/07/22 01:37:18;;;;;;;1.00;1.00;;;26.70;44.50;;;;;;5089054;28;20040;-61
2022/07/22 01:39:46;;;;;;;1.20;1.15;;;26.70;44.50;;;;;;5088662;28;20052;-62
2022/07/22 01:42:13;;;;;;;0.63;0.63;;;26.70;44.60;;;;;;5087092;28;20066;-61
2022/07/22 01:44:40;;;;;;;1.50;1.40;;;26.70;44.50;;;;;;5088245;28;20450;-62
2022/07/22 01:47:08;;;;;;;1.65;1.00;;;26.70;44.60;;;;;;5083382;28;20098;-61
2022/07/22 01:49:36;;;;;;;1.30;1.20;;;26.70;44.60;;;;;;5088273;28;20481;-62
2022/07/22 01:52:04;;;;;;;1.17;0.90;;;26.60;44.50;;;;;;5087276;28;20056;-61
2022/07/22 01:54:33;;;;;;;1.20;1.08;;;26.60;44.50;;;;;;5088720;28;20500;-61
2022/07/22 01:57:02;;;;;;;0.73;0.73;;;26.60;44.50;;;;;;5088808;28;20450;-61
2022/07/22 01:59:29;;;;;;;1.75;1.15;;;26.60;44.50;;;;;;5088668;28;20048;-61
2022/07/22 02:01:57;;;;;;;0.70;0.70;;;26.60;44.60;;;;;;5087717;28;20090;-61
2022/07/22 02:04:24;;;;;;;0.95;0.95;;;26.60;44.60;;;;;;5087113;28;20093;-61
2022/07/22 02:06:53;;;;;;;2.15;0.82;;;26.60;44.60;;;;;;5088727;28;20044;-62
2022/07/22 02:09:20;;;;;;;0.80;0.80;;;26.60;44.60;;;;;;5087564;28;20044;-61
2022/07/22 02:11:47;;;;;;;1.27;0.95;;;26.60;44.60;;;;;;5088342;28;20533;-61
2022/07/22 02:14:14;;;;;;;2.88;1.10;;;26.60;44.60;;;;;;5087972;28;20451;-61
2022/07/22 02:16:42;;;;;;;0.75;0.75;;;26.60;44.60;;;;;;5088464;28;20152;-61
2022/07/22 02:19:09;;;;;;;0.85;0.85;;;26.60;44.60;;;;;;5083694;28;20056;-61
2022/07/22 02:21:37;;;;;;;1.33;1.23;;;26.60;44.70;;;;;;5087540;28;20269;-61
2022/07/22 02:24:05;;;;;;;1.02;1.00;;;26.60;44.70;;;;;;5088310;28;20047;-61
2022/07/22 02:26:32;;;;;;;1.17;0.75;;;26.60;44.70;;;;;;5086592;28;20110;-61
2022/07/22 02:28:59;;;;;;;0.98;0.98;;;26.50;44.60;;;;;;5086903;28;20455;-61
2022/07/22 02:31:27;;;;;;;0.90;0.90;;;26.60;44.70;;;;;;5086377;28;20389;-61
2022/07/22 02:33:54;;;;;;;1.75;1.00;;;26.50;44.60;;;;;;5088009;28;20051;-62
2022/07/22 02:36:23;;;;;;;1.10;1.10;;;26.60;44.70;;;;;;5088348;28;20118;-61
2022/07/22 02:38:50;;;;;;;0.73;0.73;;;26.50;44.70;;;;;;5086520;28;20044;-61
2022/07/22 02:41:19;;;;;;;0.90;0.90;;;26.50;44.70;;;;;;5086968;28;20066;-61
2022/07/22 02:43:46;;;;;;;1.10;1.00;;;26.50;44.70;;;;;;5087680;28;20588;-62
2022/07/22 02:46:13;;;;;;;1.13;0.88;;;26.50;44.70;;;;;;5087095;28;20084;-61
2022/07/22 02:48:40;;;;;;;0.80;0.80;;;26.50;44.70;;;;;;5085642;28;20044;-60
2022/07/22 02:51:08;;;;;;;0.77;0.77;;;26.50;44.80;;;;;;5084473;28;20048;-61
2022/07/22 02:53:35;;;;;;;0.93;0.93;;;26.50;44.80;;;;;;5087009;28;20425;-61
2022/07/22 02:56:02;;;;;;;0.80;0.80;;;26.50;44.80;;;;;;5087345;28;20665;-61
2022/07/22 02:58:29;;;;;;;0.80;0.80;;;26.50;44.80;;;;;;5087805;28;20504;-61
2022/07/22 03:00:56;;;;;;;0.90;0.90;;;26.50;44.80;;;;;;5087734;28;20048;-61
2022/07/22 03:03:24;;;;;;;1.20;1.10;;;26.50;44.80;;;;;;5086807;28;20087;-61
2022/07/22 03:05:51;;;;;;;1.13;0.98;;;26.50;44.80;;;;;;5087351;28;20044;-61
2022/07/22 03:08:18;;;;;;;1.75;0.80;;;26.50;44.80;;;;;;5087307;28;20480;-61
2022/07/22 03:10:45;;;;;;;1.10;1.10;;;26.60;44.90;;;;;;5086090;28;20377;-61
2022/07/22 03:13:13;;;;;;;1.05;0.95;;;26.50;44.80;;;;;;5087632;28;20093;-61
2022/07/22 03:15:40;;;;;;;0.90;0.90;;;26.50;44.80;;;;;;5086987;28;20044;-61
2022/07/22 03:18:07;;;;;;;1.08;0.90;;;26.50;44.80;;;;;;5088004;28;20048;-61
2022/07/22 03:20:34;;;;;;;1.25;1.10;;;26.50;44.80;;;;;;5083015;28;20056;-61
2022/07/22 03:23:02;;;;;;;0.70;0.70;;;26.60;44.80;;;;;;5086953;28;20051;-61
2022/07/22 03:25:30;;;;;;;1.25;0.93;;;26.50;44.80;;;;;;5085912;28;20544;-61
2022/07/22 03:27:58;;;;;;;0.60;0.60;;;26.50;44.80;;;;;;5086582;28;20051;-61
2022/07/22 03:30:25;;;;;;;1.15;0.95;;;26.50;44.80;;;;;;5085903;28;20475;-61
2022/07/22 03:32:52;;;;;;;1.05;1.05;;;26.50;44.80;;;;;;5086575;28;20048;-62
2022/07/22 03:35:20;;;;;;;1.42;1.10;;;26.50;44.80;;;;;;5086551;28;20493;-61
2022/07/22 03:37:47;;;;;;;0.95;0.80;;;26.50;44.80;;;;;;5086837;28;20048;-61
2022/07/22 03:40:14;;;;;;;1.27;0.80;;;26.50;44.80;;;;;;5086479;28;20539;-61
2022/07/22 03:42:41;;;;;;;0.70;0.70;;;26.50;44.80;;;;;;5084656;28;20051;-61
2022/07/22 03:45:12;;;;;;;1.27;1.17;;;26.50;44.80;;;;;;5086676;28;20276;-61
2022/07/22 03:47:40;;;;;;;1.38;1.27;;;26.50;44.80;;;;;;5086527;28;20292;-61
2022/07/22 03:50:07;;;;;;;1.02;1.02;;;26.60;44.80;;;;;;5086384;28;20535;-61
2022/07/22 03:52:35;;;;;;;0.68;0.68;;;26.60;44.80;;;;;;5081009;28;20298;-61
2022/07/22 03:55:04;;;;;;;0.90;0.90;;;26.60;44.80;;;;;;5086157;28;20428;-61
2022/07/22 03:57:31;;;;;;;1.02;1.02;;;26.60;44.80;;;;;;5076097;28;20712;-61
2022/07/22 03:59:58;;;;;;;0.70;0.70;;;26.60;44.70;;;;;;5065149;28;20142;-61
2022/07/22 04:02:25;;;;;;;0.70;0.70;;;26.60;44.70;;;;;;5066021;28;20105;-62
2022/07/22 04:04:52;;;;;;;1.13;1.02;;;26.60;44.70;;;;;;5066004;28;20397;-62
2022/07/22 04:07:20;;;;;;;0.88;0.88;;;26.60;44.70;;;;;;5048116;28;20481;-61
2022/07/22 04:09:47;;;;;;;0.95;0.95;;;26.60;44.60;;;;;;5065699;28;20513;-62
2022/07/22 04:12:14;;;;;;;1.27;0.93;;;26.70;44.70;;;;;;5073834;28;20052;-62
2022/07/22 04:14:41;;;;;;;1.20;1.10;;;26.70;44.60;;;;;;5068262;28;20040;-62
2022/07/22 04:17:08;;;;;;;1.10;1.10;;;26.70;44.60;;;;;;5084627;28;20052;-63
2022/07/22 04:19:41;;;;;;;1.00;1.00;;;26.70;44.60;;;;;;5085207;28;20049;-61
2022/07/22 04:22:09;;;;;;;0.88;0.88;;;26.70;44.50;;;;;;5085695;28;20449;-61
2022/07/22 04:24:36;;;;;;;1.40;1.30;;;26.80;44.60;;;;;;5081267;28;20043;-61
2022/07/22 04:27:03;;;;;;;1.23;1.15;;;26.70;44.50;;;;;;5065838;28;20569;-62
2022/07/22 04:29:30;;;;;;;0.80;0.80;;;26.80;44.50;;;;;;5065422;28;20117;-60
2022/07/22 04:31:57;;;;;;;1.00;1.00;;;26.80;44.50;;;;;;5065565;28;20068;-63
2022/07/22 04:34:29;;;;;;;1.00;1.00;;;26.90;44.50;;;;;;5065050;28;20049;-61
2022/07/22 04:36:56;;;;;;;0.88;0.88;;;26.80;44.40;;;;;;5076088;28;20048;-61
2022/07/22 04:39:23;;;;;;;1.08;1.08;;;26.90;44.40;;;;;;5071897;28;20048;-61
2022/07/22 04:41:51;;;;;;;1.15;0.98;;;26.90;44.30;;;;;;5075048;28;20055;-61
2022/07/22 04:44:18;;;;;;;0.90;0.90;;;26.90;44.20;;;;;;5077708;28;20503;-61
2022/07/22 04:46:45;;;;;;;0.98;0.77;;;26.90;44.20;;;;;;5078354;28;20446;-61
2022/07/22 04:49:13;;;;;;;0.77;0.77;;;27.00;44.30;;;;;;5085215;28;20135;-61
2022/07/22 04:51:41;;;;;;;0.93;0.93;;;27.00;44.30;;;;;;5084639;28;20509;-61
2022/07/22 04:54:08;;;;;;;1.95;1.10;;;27.00;44.20;;;;;;5085650;28;20052;-61
2022/07/22 04:56:35;;;;;;;0.85;0.85;;;27.00;44.10;;;;;;5081246;28;20207;-61
2022/07/22 04:59:03;;;;;;;1.00;1.00;;;27.00;44.10;;;;;;5085620;28;20046;-61
2022/07/22 05:01:30;;;;;;;1.23;0.77;;;27.10;44.10;;;;;;5073670;28;20109;-61
2022/07/22 05:03:57;;;;;;;0.90;0.90;;;27.10;44.00;;;;;;5065081;28;20040;-61
2022/07/22 05:06:25;;;;;;;0.85;0.85;;;27.10;43.90;;;;;;5074892;28;20524;-61
2022/07/22 05:08:52;;;;;;;0.95;0.95;;;27.10;44.10;;;;;;5079453;28;20097;-61
2022/07/22 05:11:20;;;;;;;1.17;1.17;;;27.00;44.30;;;;;;5078160;28;20051;-61
2022/07/22 05:13:48;;;;;;;1.48;1.38;;;27.00;44.70;;;;;;5084691;28;20044;-61
2022/07/22 05:16:15;;;;;;;1.13;1.13;;;26.90;45.00;;;;;;5078115;28;20469;-61
2022/07/22 05:18:42;;;;;;;1.50;1.40;;;26.70;45.40;;;;;;5074836;28;20141;-58
2022/07/22 05:21:09;;;;;;;1.40;1.27;;;26.50;45.90;;;;;;5076232;28;20052;-58
2022/07/22 05:23:37;;;;;;;1.42;1.33;;;26.20;46.80;;;;;;5075644;28;20124;-59
2022/07/22 05:26:05;;;;;;;1.55;1.33;;;25.90;47.80;;;;;;5080085;28;20382;-62
2022/07/22 05:28:32;;;;;;;3.90;1.85;;;25.60;48.20;;;;;;5077917;28;20048;-62
2022/07/22 05:30:59;;;;;;;1.75;1.65;;;25.20;48.30;;;;;;5080984;28;20047;-60
2022/07/22 05:33:27;;;;;;;1.92;1.73;;;24.90;48.20;;;;;;5075320;28;20131;-61
2022/07/22 05:35:55;;;;;;;2.20;2.00;;;24.60;48.40;;;;;;5079810;28;20710;-60
2022/07/22 05:38:22;;;;;;;2.88;2.05;;;24.20;48.50;;;;;;5076384;28;20493;-60
2022/07/22 05:40:49;;;;;;;4.18;2.45;;;23.90;48.80;;;;;;5072567;28;20141;-58
2022/07/22 05:43:16;;;;;;;3.30;2.63;;;23.60;48.90;;;;;;5071793;28;20044;-58
2022/07/22 05:45:44;;;;;;;3.20;2.85;;;23.30;49.60;;;;;;5076928;28;20566;-59
2022/07/22 05:48:11;;;;;;;3.67;3.15;;;23.00;50.20;;;;;;5069885;28;20052;-59
2022/07/22 05:50:38;;;;;;;3.80;3.40;;;22.80;50.90;;;;;;5071316;28;20105;-59
2022/07/22 05:53:06;;;;;;;5.28;3.95;;;22.60;51.70;;;;;;5074576;28;20131;-59
2022/07/22 05:55:33;;;;;;;7.43;3.78;;;22.40;51.60;;;;;;5073379;28;20093;-59
2022/07/22 05:58:01;;;;;;;6.95;4.20;;;22.30;52.00;;;;;;5072556;28;20496;-59
2022/07/22 06:00:29;;;;;;;5.95;4.38;;;22.10;51.70;;;;;;5068170;28;20066;-59
2022/07/22 06:02:58;;;;;;;5.53;4.45;;;22.00;52.10;;;;;;5071596;28;20040;-60
2022/07/22 06:05:25;;;;;;;5.20;4.47;;;21.90;52.30;;;;;;5064437;28;20105;-59
2022/07/22 06:08:07;;;;;;;5.65;4.18;;;21.80;52.50;;;;;;5071961;28;20063;-58
2022/07/22 06:10:35;;;;;;;6.88;4.78;;;21.70;53.20;;;;;;5074676;28;20056;-59
2022/07/22 06:13:02;;;;;;;7.13;4.15;;;21.60;53.60;;;;;;5073459;28;20055;-59
2022/07/22 06:15:29;;;;;;;6.43;5.63;;;21.50;54.00;;;;;;5077020;28;20056;-59
2022/07/22 06:17:57;;;;;;;7.70;4.88;;;21.50;54.90;;;;;;5076759;28;20044;-59
2022/07/22 06:20:24;;;;;;;7.72;4.80;;;21.50;55.30;;;;;;5071342;28;20131;-58
2022/07/22 06:22:51;;;;;;;7.53;4.93;;;21.50;55.40;;;;;;5079422;28;20048;-62
2022/07/22 06:25:19;;;;;;;7.95;5.38;;;21.40;55.50;;;;;;5080760;28;20040;-59
2022/07/22 06:28:06;;;;;;;9.38;5.60;;;21.40;56.50;;;;;;5075046;28;20604;-58
2022/07/22 06:30:33;;;;;;;10.98;5.40;;;21.40;56.30;;;;;;5071238;28;20117;-61
2022/07/22 06:33:01;;;;;;;9.05;5.13;;;21.40;56.20;;;;;;5076004;28;20075;-59
2022/07/22 06:35:28;;;;;;;6.40;5.28;;;21.40;56.50;;;;;;5076336;28;20048;-59
2022/07/22 06:37:55;;;;;;;5.35;4.70;;;21.40;57.00;;;;;;5073645;28;20048;-60
2022/07/22 06:40:34;;;;;;;8.40;4.45;;;21.50;56.80;;;;;;5079035;28;20074;-59
2022/07/22 06:43:03;;;;;;;5.63;5.00;;;21.50;56.90;;;;;;5074658;28;20119;-59
2022/07/22 06:45:31;;;;;;;9.32;5.55;;;21.60;56.90;;;;;;5077071;28;20048;-60
2022/07/22 06:47:58;;;;;;;5.05;4.55;;;21.60;57.10;;;;;;5078256;28;20485;-59
2022/07/22 06:50:26;;;;;;;7.30;4.43;;;21.60;57.20;;;;;;5078049;28;20052;-60
2022/07/22 06:52:56;;;;;;;7.23;5.73;;;21.60;56.80;;;;;;5071945;28;20133;-60
2022/07/22 06:55:23;;;;;;;7.75;4.97;;;21.60;57.20;;;;;;5071222;28;20487;-61
2022/07/22 06:57:50;;;;;;;7.40;5.53;;;21.60;57.30;;;;;;5050880;28;20439;-61
2022/07/22 07:00:18;;;;;;;7.13;4.93;;;21.70;57.80;;;;;;5066513;28;20056;-60
2022/07/22 07:02:47;;;;;;;5.07;4.40;;;21.60;57.60;;;;;;5066513;28;20048;-59
2022/07/22 07:05:15;;;;;;;9.05;4.78;;;21.60;57.80;;;;;;5072999;28;20048;-60
2022/07/22 07:07:47;;;;;;;5.95;4.18;;;21.70;57.90;;;;;;5073770;28;20052;-59
2022/07/22 07:10:15;;;;;;;7.45;4.65;;;21.70;58.00;;;;;;5077868;28;20238;-57
2022/07/22 07:12:43;;;;;;;14.88;5.72;;;21.70;57.90;;;;;;5076837;28;20059;-59
2022/07/22 07:15:11;;;;;;;6.32;4.60;;;21.80;58.20;;;;;;5075637;28;20044;-59
2022/07/22 07:17:56;;;;;;;5.35;4.68;;;21.80;58.30;;;;;;5082289;28;20238;-59
2022/07/22 07:20:24;;;;;;;8.10;4.60;;;21.80;57.90;;;;;;5073253;28;20717;-59
2022/07/22 07:22:53;;;;;;;5.35;4.43;;;21.90;58.00;;;;;;5072062;28;20063;-59
2022/07/22 07:25:21;;;;;;;8.27;4.78;;;22.00;58.00;;;;;;5054846;28;20047;-59
2022/07/22 07:27:52;;;;;;;9.20;4.82;;;22.10;57.70;;;;;;5081729;28;20043;-63
2022/07/22 07:30:21;;;;;;;6.85;4.80;;;22.10;57.50;;;;;;5074520;28;20040;-62
2022/07/22 07:32:48;;;;;;;5.05;4.32;;;22.10;57.30;;;;;;5071179;28;20048;-60
2022/07/22 07:35:15;;;;;;;4.50;4.10;;;22.20;57.20;;;;;;5072833;28;20520;-59
2022/07/22 07:37:42;;;;;;;5.00;4.50;;;22.20;57.10;;;;;;5070002;28;20128;-59
2022/07/22 07:40:10;;;;;;;7.80;4.43;;;22.20;56.80;;;;;;5072277;28;20040;-59
2022/07/22 07:42:38;;;;;;;7.25;4.93;;;22.20;56.70;;;;;;5073277;28;20127;-61
2022/07/22 07:45:14;;;;;;;7.78;4.32;;;22.20;56.80;;;;;;5057775;28;20051;-62
2022/07/22 07:47:42;;;;;;;4.97;4.28;;;22.20;56.90;;;;;;5070170;28;20055;-60
2022/07/22 07:50:10;;;;;;;5.00;4.30;;;22.20;56.90;;;;;;5072184;28;20040;-60
2022/07/22 07:52:43;;;;;;;5.03;3.83;;;22.20;56.70;;;;;;5066587;28;20056;-60
2022/07/22 07:55:18;;;;;;;4.85;3.78;;;22.20;56.70;;;;;;5069771;28;20052;-60
2022/07/22 07:57:48;;;;;;;3.90;3.50;;;22.10;56.60;;;;;;5073108;28;20056;-60
2022/07/22 08:00:23;;;;;;;7.18;4.57;;;22.10;56.60;;;;;;5066499;28;20500;-59
2022/07/22 08:02:51;;;;;;;6.38;4.32;;;22.10;56.50;;;;;;5071021;28;20055;-59
2022/07/22 08:05:21;;;;;;;7.97;4.53;;;22.10;56.50;;;;;;5064417;28;20048;-60
2022/07/22 08:07:53;;;;;;;7.15;4.90;;;22.10;56.60;;;;;;5056870;28;20067;-59
2022/07/22 08:10:20;;;;;;;5.30;3.35;;;22.10;56.70;;;;;;5073458;28;20052;-59
2022/07/22 08:13:08;;;;;;;9.52;4.93;;;22.10;56.60;;;;;;5071447;28;20791;-60
2022/07/22 08:15:36;;;;;;;5.53;4.03;;;22.10;56.60;;;;;;5074457;28;20094;-60
2022/07/22 08:18:04;;;;;;;5.18;4.03;;;22.10;56.50;;;;;;5072835;28;20101;-59
2022/07/22 08:20:31;;;;;;;4.70;3.50;;;22.10;56.60;;;;;;5080977;28;20079;-59
2022/07/22 08:22:59;;;;;;;6.18;4.72;;;22.10;56.40;;;;;;5068245;28;20059;-59
2022/07/22 08:25:26;;;;;;;11.18;4.22;;;22.10;56.60;;;;;;5068791;28;20402;-59
2022/07/22 08:27:55;;;;;;;6.13;3.70;;;22.10;56.90;;;;;;5069866;28;20052;-59
2022/07/22 08:30:27;;;;;;;6.72;4.50;;;22.00;56.80;;;;;;5069118;28;20044;-60
2022/07/22 08:32:54;;;;;;;6.60;4.07;;;22.10;57.10;;;;;;5072726;28;20453;-59
2022/07/22 08:35:21;;;;;;;5.57;3.80;;;22.00;56.90;;;;;;5069653;28;20052;-60
2022/07/22 08:37:49;;;;;;;5.20;4.45;;;22.00;57.00;;;;;;5073112;28;20052;-62
2022/07/22 08:40:18;;;;;;;4.60;3.95;;;22.00;56.80;;;;;;5074210;28;20154;-59
2022/07/22 08:42:48;;;;;;;7.63;3.95;;;22.00;56.70;;;;;;5076717;28;20058;-60
2022/07/22 08:45:15;;;;;;;6.47;4.22;;;22.00;56.60;;;;;;5070374;28;20648;-59
2022/07/22 08:47:50;;;;;;;5.70;3.88;;;22.00;56.50;;;;;;5068498;28;20057;-59
2022/07/22 08:50:19;;;;;;;4.57;4.00;;;22.00;56.40;;;;;;5070054;28;22576;-60
2022/07/22 08:52:48;;;;;;;5.00;3.80;;;22.00;56.40;;;;;;5068180;28;20101;-59
2022/07/22 08:55:15;;;;;;;7.55;3.63;;;22.00;56.20;;;;;;5064790;28;22109;-60
2022/07/22 08:57:46;;;;;;;5.70;4.18;;;22.00;57.40;;;;;;5064653;28;20052;-59
2022/07/22 09:00:22;;;;;;;9.85;3.70;;;22.10;58.30;;;;;;5067308;28;20139;-60
2022/07/22 09:02:49;;;;;;;5.00;3.38;;;22.30;57.80;;;;;;5078097;28;20143;-60
2022/07/22 09:05:17;;;;;;;5.22;3.60;;;22.50;57.80;;;;;;5073760;28;20072;-59
2022/07/22 09:08:05;;;;;;;5.80;3.83;;;22.70;57.30;;;;;;5070746;28;20469;-60
2022/07/22 09:10:34;;;;;;;4.78;3.92;;;22.90;56.70;;;;;;5077089;28;20040;-59
2022/07/22 09:13:05;;;;;;;7.15;3.28;;;23.00;56.00;;;;;;5076172;28;20063;-59
2022/07/22 09:15:35;;;;;;;6.63;3.45;;;23.20;56.00;;;;;;5078674;28;20113;-59
2022/07/22 09:18:04;;;;;;;5.35;3.17;;;23.20;55.50;;;;;;5076546;28;20428;-59
2022/07/22 09:20:36;;;;;;;4.72;3.65;;;23.30;55.40;;;;;;5078831;28;20557;-63
2022/07/22 09:23:10;;;;;;;;;;;23.30;55.60;;;;;;5075009;28;20097;-59
2022/07/22 09:25:39;;;;;;;4.10;3.40;;;23.40;56.00;;;;;;5074128;28;20311;-59
2022/07/22 09:28:12;;;;;;;6.13;3.60;;;23.40;55.70;;;;;;5074265;28;20082;-59
2022/07/22 09:30:49;;;;;;;4.22;3.30;;;23.50;55.60;;;;;;5080100;28;20056;-59
2022/07/22 09:33:20;;;;;;;3.25;2.95;;;23.50;55.10;;;;;;5076023;28;20047;-59
2022/07/22 09:35:48;;;;;;;7.15;3.00;;;23.50;54.60;;;;;;5076404;28;20058;-60
2022/07/22 09:38:26;;;;;;;4.75;3.47;;;23.50;54.30;;;;;;5078464;28;20048;-59
2022/07/22 09:40:53;;;;;;;3.53;3.20;;;23.60;54.20;;;;;;5060050;28;20105;-59
2022/07/22 09:43:21;;;;;;;5.68;3.25;;;23.60;54.10;;;;;;5074121;28;20060;-60
2022/07/22 09:45:56;;;;;;;8.13;3.03;;;23.60;54.10;;;;;;5078939;28;20072;-61
2022/07/22 09:48:25;;;;;;;4.88;2.83;;;23.60;54.20;;;;;;5075454;28;20044;-61
2022/07/22 09:50:55;;;;;;;3.25;2.95;;;23.60;54.30;;;;;;5077413;28;20101;-61
2022/07/22 09:53:26;;;;;;;2.80;2.58;;;23.70;54.50;;;;;;5076779;28;20829;-60
2022/07/22 09:55:54;;;;;;;5.05;2.92;;;23.70;54.40;;;;;;5073955;28;20052;-58
2022/07/22 09:58:21;;;;;;;3.50;3.00;;;23.70;54.30;;;;;;5075264;28;20049;-60
2022/07/22 10:00:51;;;;;;;4.53;3.00;;;23.70;54.30;;;;;;5078796;28;20052;-59
2022/07/22 10:03:30;;;;;;;7.40;3.60;;;23.70;54.20;;;;;;5080569;28;20419;-59
2022/07/22 10:05:58;;;;;;;3.42;2.75;;;23.70;54.20;;;;;;5082250;28;20125;-60
2022/07/22 10:08:27;;;;;;;5.63;2.90;;;23.70;54.10;;;;;;5082690;28;20044;-60
2022/07/22 10:10:59;;;;;;;6.88;2.70;;;23.70;53.80;;;;;;5080432;28;20051;-60
2022/07/22 10:13:27;;;;;;;2.80;2.47;;;23.70;53.30;;;;;;5079345;28;20048;-60
2022/07/22 10:15:56;;;;;;;3.75;3.10;;;23.70;52.90;;;;;;5079713;28;20044;-60
2022/07/22 10:18:31;;;;;;;3.55;2.65;;;23.70;52.60;;;;;;5082675;28;20044;-60
2022/07/22 10:21:07;;;;;;;2.78;2.58;;;23.60;52.30;;;;;;5082969;28;20459;-60
2022/07/22 10:23:35;;;;;;;3.75;2.63;;;23.70;52.10;;;;;;5079711;28;20047;-59
2022/07/22 10:26:04;;;;;;;3.65;2.72;;;23.60;52.00;;;;;;5082920;28;20546;-59
2022/07/22 10:28:37;;;;;;;3.22;2.42;;;23.60;51.90;;;;;;5078885;28;20055;-59
2022/07/22 10:31:23;;;;;;;4.15;2.33;;;23.60;51.80;;;;;;5082687;28;20119;-59
2022/07/22 10:33:54;;;;;;;8.23;2.60;;;23.60;51.20;;;;;;5081247;28;20139;-59
2022/07/22 10:36:35;;;;;;;3.28;2.63;;;23.50;50.60;;;;;;5083806;28;20510;-59
2022/07/22 10:39:09;;;;;;;6.38;3.13;;;23.30;51.10;;;;;;5079760;28;20097;-60
2022/07/22 10:41:39;;;;;;;4.80;2.92;;;23.10;51.40;;;;;;5079965;28;20763;-60
2022/07/22 10:44:08;;;;;;;4.13;2.45;;;23.00;52.30;;;;;;5071399;28;20101;-59
2022/07/22 10:46:52;;;;;;;4.53;2.47;;;22.80;52.60;;;;;;5076076;28;20064;-59
2022/07/22 10:49:24;;;;;;;5.10;2.60;;;22.70;53.00;;;;;;5075573;28;20113;-59
2022/07/22 10:52:22;;;;;;;3.95;2.70;;;22.70;53.40;;;;;;5077144;28;20175;-58
2022/07/22 10:55:16;;;;;;;3.35;2.80;;;22.60;53.80;;;;;;5078643;28;20048;-59
2022/07/22 10:57:43;;;;;;;3.65;2.97;;;22.60;54.20;;;;;;5072767;28;20443;-59
2022/07/22 11:00:11;;;;;;;2.55;2.35;;;22.50;54.40;;;;;;5065118;28;20074;-59
2022/07/22 11:02:38;;;;;;;3.15;2.80;;;22.50;54.70;;;;;;5077049;28;20551;-59
2022/07/22 11:05:08;;;;;;;4.28;3.25;;;22.50;54.80;;;;;;5072612;28;20048;-59
2022/07/22 11:07:46;;;;;;;2.83;2.45;;;22.50;54.90;;;;;;5076626;28;20480;-59
2022/07/22 11:10:17;;;;;;;2.85;2.42;;;22.50;54.90;;;;;;5077574;28;20048;-60
2022/07/22 11:12:49;;;;;;;3.72;2.40;;;22.50;55.40;;;;;;5065227;28;20056;-60
2022/07/22 11:15:18;;;;;;;2.28;2.05;;;22.60;54.70;;;;;;5067043;28;20049;-60
2022/07/22 11:17:45;;;;;;;2.80;2.38;;;22.60;54.60;;;;;;5073026;28;20064;-60
2022/07/22 11:20:17;;;;;;;3.83;2.90;;;22.60;54.70;;;;;;5078849;28;20075;-59
2022/07/22 11:22:47;;;;;;;3.45;2.60;;;22.60;55.30;;;;;;5076484;28;20144;-59
2022/07/22 11:25:25;;;;;;;4.53;2.65;;;22.60;55.70;;;;;;5079891;28;20040;-60
2022/07/22 11:27:52;;;;;;;4.05;2.40;;;22.60;55.70;;;;;;5079310;28;20048;-60
2022/07/22 11:30:20;;;;;;;5.75;2.85;;;22.60;55.70;;;;;;5078331;28;20040;-59
2022/07/22 11:32:48;;;;;;;8.88;2.55;;;22.60;55.70;;;;;;5065530;28;20097;-59
2022/07/22 11:35:15;;;;;;;5.18;3.10;;;22.60;55.80;;;;;;5078123;28;20396;-60
2022/07/22 11:37:54;;;;;;;2.95;2.30;;;22.60;55.70;;;;;;5082104;28;20052;-60
2022/07/22 11:40:22;;;;;;;2.45;2.25;;;22.60;56.00;;;;;;5060180;28;20097;-60
2022/07/22 11:43:01;;;;;;;3.75;2.50;;;22.60;55.90;;;;;;5078186;28;20508;-60
2022/07/22 11:45:29;;;;;;;4.63;3.20;;;22.60;55.40;;;;;;5074929;28;20056;-62
2022/07/22 11:47:56;;;;;;;4.82;2.55;;;22.60;55.40;;;;;;5075802;28;20227;-58
2022/07/22 11:50:33;;;;;;;5.38;2.95;;;22.60;55.40;;;;;;5074548;28;20045;-58
2022/07/22 11:53:03;;;;;;;3.30;2.50;;;22.60;55.30;;;;;;5074777;28;20113;-61
2022/07/22 11:55:30;;;;;;;3.30;3.00;;;22.60;55.40;;;;;;5073539;28;20459;-61
2022/07/22 11:57:57;;;;;;;4.25;2.50;;;22.50;55.40;;;;;;5071343;28;20062;-59
2022/07/22 12:00:25;;;;;;;3.45;2.78;;;22.50;55.30;;;;;;5069061;28;20493;-59
2022/07/22 12:02:52;;;;;;;3.83;3.08;;;22.50;55.60;;;;;;5081610;28;20172;-59
2022/07/22 12:05:19;;;;;;;2.80;2.60;;;22.50;55.70;;;;;;5074926;28;20126;-58
2022/07/22 12:08:02;;;;;;;5.18;3.03;;;22.50;55.30;;;;;;5072127;28;20512;-59
2022/07/22 12:10:30;;;;;;;3.30;2.70;;;22.50;54.90;;;;;;5078577;28;20052;-58
2022/07/22 12:12:57;;;;;;;4.63;2.53;;;22.50;54.90;;;;;;5077080;28;20083;-58
2022/07/22 12:15:24;;;;;;;3.78;2.50;;;22.50;54.90;;;;;;5077615;28;20532;-60
2022/07/22 12:18:21;;;;;;;2.70;2.47;;;22.50;54.90;;;;;;5073251;28;20043;-59
2022/07/22 12:20:49;;;;;;;3.90;2.30;;;22.50;54.90;;;;;;5076220;28;20173;-59
2022/07/22 12:23:21;;;;;;;3.33;2.50;;;22.50;54.90;;;;;;5062373;28;20050;-59
2022/07/22 12:25:54;;;;;;;2.42;2.22;;;22.50;54.90;;;;;;5074776;28;20362;-63
2022/07/22 12:28:22;;;;;;;4.22;2.75;;;22.50;54.80;;;;;;5075163;28;20481;-59
2022/07/22 12:30:51;;;;;;;2.50;2.30;;;22.50;55.30;;;;;;5076726;28;20485;-59
2022/07/22 12:33:20;;;;;;;6.20;2.45;;;22.60;54.70;;;;;;5082950;28;20280;-59
2022/07/22 12:36:07;;;;;;;3.30;2.83;;;22.60;54.60;;;;;;5079554;28;20052;-59
2022/07/22 12:38:36;;;;;;;3.58;2.40;;;22.60;54.60;;;;;;5077619;28;20105;-59
2022/07/22 12:41:29;;;;;;;5.00;2.60;;;22.60;54.50;;;;;;5080592;28;20524;-59
2022/07/22 12:43:56;;;;;;;7.82;2.70;;;22.60;54.40;;;;;;5077936;28;20601;-59
2022/07/22 12:46:24;;;;;;;3.83;2.40;;;22.50;54.50;;;;;;5079544;28;20556;-61
2022/07/22 12:48:53;;;;;;;5.50;2.42;;;22.50;54.40;;;;;;5073904;28;20472;-59
2022/07/22 12:51:21;;;;;;;4.45;3.13;;;22.50;54.40;;;;;;5074620;28;20037;-61
2022/07/22 12:53:48;;;;;;;6.38;2.58;;;22.50;54.70;;;;;;5082684;28;20577;-59
2022/07/22 12:56:15;;;;;;;3.65;2.45;;;22.50;54.80;;;;;;5083658;28;20071;-60
2022/07/22 12:58:42;;;;;;;4.50;3.15;;;22.50;54.90;;;;;;5077441;28;20416;-59